LEI weather

Almería International Airport
Almería, Andalucía, Spain

Public forecast

Using degrees Celsius for public forecast. Weather courtesy of forecast.io.

Current aviation weather report (METAR) for Almería International Airport

Retrieved 2020/05/26 13:30 UTC (0 seconds ago):

LEAM 261330Z AUTO 07022KT 050V110 CAVOK 30/15 Q1021

Aviation forecast (TAF) for Almería International Airport

Retrieved 2020/05/26 09:31 UTC (4 hours ago):

TAF LEAM 260800Z 2609/2709 07018KT CAVOK TX31/2613Z TN19/2705Z PROB40 TEMPO 2609/2620 07019G30KT BECMG 2620/2622 35006KT BECMG 2706/2708 07020KT